Time;durP1;ratioP1;P1;durP2;ratioP2;P2;SDS_P1;SDS_P2;PMS_P1;PMS_P2;Temp;Humidity;BMP_temperature;BMP_pressure;BME280_temperature;BME280_humidity;BME280_pressure;Samples;Min_cycle;Max_cycle;Signal;HPM_P1;HPM_P2
2022/10/05 00:00:14;;;;;;;11.75;7.78;;;15.90;99.90;;;;;;5073617;28;20051;-89
2022/10/05 00:02:40;;;;;;;13.20;7.72;;;15.90;99.90;;;;;;5071526;28;20148;-89
2022/10/05 00:05:15;;;;;;;11.35;7.45;;;15.90;99.90;;;;;;5073466;28;20103;-90
2022/10/05 00:07:41;;;;;;;11.32;7.32;;;16.00;99.90;;;;;;5056663;28;20040;-89
2022/10/05 00:10:12;;;;;;;12.57;5.70;;;15.90;99.90;;;;;;5057054;28;20195;-90
2022/10/05 00:12:38;;;;;;;11.02;6.72;;;15.90;99.90;;;;;;5073091;28;20044;-90
2022/10/05 00:15:10;;;;;;;11.18;7.28;;;15.90;99.90;;;;;;5056631;28;20044;-90
2022/10/05 00:17:36;;;;;;;13.43;5.30;;;15.90;99.90;;;;;;5056794;28;20044;-90
2022/10/05 00:20:18;;;;;;;9.73;6.75;;;15.80;99.90;;;;;;5072824;28;20045;-90
2022/10/05 00:22:43;;;;;;;12.63;6.75;;;15.90;99.90;;;;;;5056484;28;20037;-90
2022/10/05 00:25:16;;;;;;;10.55;5.43;;;15.90;99.90;;;;;;5056902;28;20052;-90
2022/10/05 00:27:42;;;;;;;;;;;15.90;99.90;;;;;;5073250;28;20079;-90
2022/10/05 00:30:17;;;;;;;12.20;7.00;;;15.80;99.90;;;;;;5056331;28;20006;-90
2022/10/05 00:32:44;;;;;;;12.55;6.90;;;15.90;99.90;;;;;;5073177;28;20517;-90
2022/10/05 00:35:11;;;;;;;10.77;5.35;;;15.90;99.90;;;;;;5056085;28;20117;-90
2022/10/05 00:37:36;;;;;;;12.27;6.78;;;15.90;99.90;;;;;;5056701;28;20036;-90
2022/10/05 00:40:09;;;;;;;10.10;6.70;;;15.90;99.90;;;;;;5072727;28;20556;-90
2022/10/05 00:43:04;;;;;;;10.43;6.50;;;15.90;99.90;;;;;;5072616;28;20044;-90
2022/10/05 00:45:39;;;;;;;10.70;4.60;;;15.90;99.90;;;;;;5073248;28;20490;-89
2022/10/05 00:48:29;;;;;;;11.15;6.90;;;15.90;99.90;;;;;;5072946;28;20048;-89
2022/10/05 00:51:18;;;;;;;10.73;5.30;;;15.90;99.90;;;;;;5072401;28;20056;-90
2022/10/05 00:54:16;;;;;;;12.52;7.00;;;15.90;99.90;;;;;;5055347;28;20072;-90
2022/10/05 00:57:03;;;;;;;11.52;5.93;;;15.90;99.90;;;;;;5027710;28;20044;-90
2022/10/05 00:59:47;;;;;;;11.88;8.10;;;15.80;99.90;;;;;;5072683;28;20098;-89
2022/10/05 01:02:31;;;;;;;12.88;8.35;;;15.90;99.90;;;;;;5055685;28;20048;-90
2022/10/05 01:05:06;;;;;;;13.00;8.70;;;15.90;99.90;;;;;;5072089;28;20040;-90
2022/10/05 01:08:01;;;;;;;13.60;8.50;;;15.90;99.90;;;;;;5072766;28;20394;-89
2022/10/05 01:10:41;;;;;;;13.00;9.13;;;15.90;99.90;;;;;;5055730;28;20036;-90
2022/10/05 01:13:18;;;;;;;13.40;9.35;;;15.90;99.90;;;;;;5072328;28;20048;-89
2022/10/05 01:15:53;;;;;;;13.82;9.63;;;15.90;99.90;;;;;;5072221;28;20055;-90
2022/10/05 01:18:18;;;;;;;14.80;9.95;;;15.90;99.90;;;;;;5072269;28;20045;-90
2022/10/05 01:21:21;;;;;;;13.98;7.55;;;15.80;99.90;;;;;;5072231;28;20411;-89
2022/10/05 01:23:59;;;;;;;13.02;6.70;;;15.70;99.90;;;;;;5055454;28;20041;-89
2022/10/05 01:27:00;;;;;;;15.88;10.40;;;15.70;99.90;;;;;;5072125;28;20055;-89
2022/10/05 01:29:48;;;;;;;12.68;9.77;;;15.70;99.90;;;;;;5072173;28;20402;-90
2022/10/05 01:32:17;;;;;;;13.35;10.02;;;15.70;99.90;;;;;;5071663;28;20225;-89
2022/10/05 01:34:52;;;;;;;15.23;11.10;;;15.70;99.90;;;;;;5071831;28;20090;-89
2022/10/05 01:37:27;;;;;;;13.45;7.90;;;15.70;99.90;;;;;;5072017;28;20036;-90
2022/10/05 01:40:30;;;;;;;15.15;10.63;;;15.70;99.90;;;;;;5055225;28;20045;-89
2022/10/05 01:43:15;;;;;;;15.90;11.40;;;15.70;99.90;;;;;;5071556;28;20579;-90
2022/10/05 01:46:04;;;;;;;13.63;6.88;;;15.70;99.90;;;;;;5072009;28;20414;-89
2022/10/05 01:49:15;;;;;;;13.57;10.32;;;15.60;99.90;;;;;;5071796;28;20578;-90
2022/10/05 01:52:11;;;;;;;14.32;10.20;;;15.70;99.90;;;;;;5071247;28;20049;-90
2022/10/05 01:55:00;;;;;;;13.75;7.85;;;15.70;99.90;;;;;;5071790;28;20141;-89
2022/10/05 01:58:03;;;;;;;13.90;10.23;;;15.70;99.90;;;;;;5054809;28;20036;-90
2022/10/05 02:00:31;;;;;;;;;;;15.60;99.90;;;;;;5071774;28;20097;-89
2022/10/05 02:03:18;;;;;;;13.68;7.20;;;15.60;99.90;;;;;;5071282;28;19917;-89
2022/10/05 02:05:53;;;;;;;13.80;9.93;;;15.50;99.90;;;;;;5071005;28;20032;-90
2022/10/05 02:08:21;;;;;;;16.25;10.15;;;15.60;99.90;;;;;;5071308;28;20036;-89
2022/10/05 02:10:54;;;;;;;12.23;6.30;;;15.70;99.90;;;;;;5070877;28;20102;-89
2022/10/05 02:13:46;;;;;;;;;;;15.60;99.90;;;;;;5055404;28;20063;-89
2022/10/05 02:16:22;;;;;;;12.52;6.13;;;15.60;99.90;;;;;;5069894;28;19969;-89
2022/10/05 02:19:04;;;;;;;14.07;9.18;;;15.60;99.90;;;;;;5054236;28;20033;-89
2022/10/05 02:21:33;;;;;;;11.85;5.50;;;15.60;99.90;;;;;;5054486;28;20423;-89
2022/10/05 02:24:05;;;;;;;14.27;9.02;;;15.60;99.90;;;;;;5054259;28;20071;-90
2022/10/05 02:26:32;;;;;;;;;;;15.60;99.90;;;;;;5054568;28;20126;-89
2022/10/05 02:29:08;;;;;;;12.35;9.73;;;15.60;99.90;;;;;;5070663;28;19923;-89
2022/10/05 02:31:46;;;;;;;13.93;9.23;;;15.60;99.90;;;;;;5070763;28;20079;-90
2022/10/05 02:34:30;;;;;;;11.07;8.23;;;15.60;99.90;;;;;;5070531;28;20117;-90
2022/10/05 02:37:22;;;;;;;13.45;8.90;;;15.60;99.90;;;;;;5054345;28;20048;-90
2022/10/05 02:40:07;;;;;;;14.68;5.70;;;15.60;99.90;;;;;;5070678;28;20508;-90
2022/10/05 02:42:44;;;;;;;12.43;8.35;;;15.50;99.90;;;;;;5070374;28;20410;-89
2022/10/05 02:45:42;;;;;;;11.38;8.13;;;15.60;99.90;;;;;;5053932;28;20043;-89
2022/10/05 02:48:27;;;;;;;12.52;8.18;;;15.60;99.90;;;;;;5053841;28;20075;-89
2022/10/05 02:51:05;;;;;;;13.35;8.23;;;15.60;99.90;;;;;;5070102;28;20387;-89
2022/10/05 02:53:37;;;;;;;11.00;8.05;;;15.60;99.90;;;;;;5070330;28;20047;-89
2022/10/05 02:56:36;;;;;;;10.07;5.38;;;15.60;99.90;;;;;;5070243;28;20126;-90
2022/10/05 02:59:16;;;;;;;12.52;8.65;;;15.50;99.90;;;;;;5054075;28;20142;-90
2022/10/05 03:02:01;;;;;;;12.38;8.05;;;15.50;99.90;;;;;;5053214;28;20056;-89
2022/10/05 03:04:54;;;;;;;10.85;5.85;;;15.60;99.90;;;;;;5070788;28;20037;-90
2022/10/05 03:07:43;;;;;;;10.57;5.53;;;15.50;99.90;;;;;;5053806;28;20104;-89
2022/10/05 03:10:18;;;;;;;11.98;8.80;;;15.40;99.90;;;;;;5053161;28;20600;-89
2022/10/05 03:13:20;;;;;;;10.43;5.90;;;15.40;99.90;;;;;;5070035;28;20036;-90
2022/10/05 03:16:14;;;;;;;13.82;8.95;;;15.40;99.90;;;;;;5070103;28;20044;-89
2022/10/05 03:18:39;;;;;;;10.48;5.60;;;15.40;99.90;;;;;;5070086;28;20040;-90
2022/10/05 03:21:18;;;;;;;13.30;9.18;;;15.40;99.90;;;;;;5053501;28;20406;-89
2022/10/05 03:23:49;;;;;;;13.13;8.68;;;15.40;99.90;;;;;;5070259;28;20124;-89
2022/10/05 03:26:32;;;;;;;11.85;6.30;;;15.40;99.90;;;;;;5053223;28;20083;-89
2022/10/05 03:29:07;;;;;;;11.73;5.68;;;15.30;99.90;;;;;;5070287;28;20492;-89
2022/10/05 03:31:50;;;;;;;13.50;9.13;;;15.20;99.90;;;;;;5069704;28;20162;-89
2022/10/05 03:34:19;;;;;;;;;;;15.20;99.90;;;;;;5070880;28;20068;-90
2022/10/05 03:37:02;;;;;;;12.98;6.68;;;15.20;99.90;;;;;;5070103;28;20459;-90
2022/10/05 03:39:55;;;;;;;13.63;9.40;;;15.10;99.90;;;;;;5070126;28;20051;-89
2022/10/05 03:42:31;;;;;;;12.02;6.32;;;15.20;99.90;;;;;;5069659;28;20127;-90
2022/10/05 03:45:17;;;;;;;13.18;9.55;;;15.20;99.90;;;;;;5070139;28;20036;-90
2022/10/05 03:48:14;;;;;;;11.02;6.70;;;15.20;99.90;;;;;;5069523;28;20598;-89
2022/10/05 03:50:45;;;;;;;12.63;10.13;;;15.20;99.90;;;;;;5070017;28;20076;-90
2022/10/05 03:53:20;;;;;;;13.70;10.30;;;15.20;99.90;;;;;;5069649;28;20519;-89
2022/10/05 03:55:48;;;;;;;12.02;9.90;;;15.20;99.90;;;;;;5069515;28;20037;-90
2022/10/05 03:58:51;;;;;;;13.40;7.22;;;15.20;99.90;;;;;;5069610;28;20032;-89
2022/10/05 04:01:19;;;;;;;;;;;15.20;99.90;;;;;;4989521;28;20038;-89
2022/10/05 04:03:48;;;;;;;14.90;9.98;;;15.10;99.90;;;;;;5067164;28;19920;-89
2022/10/05 04:06:32;;;;;;;13.75;9.65;;;15.10;99.90;;;;;;5069907;28;20238;-89
2022/10/05 04:09:04;;;;;;;15.38;10.23;;;15.20;99.90;;;;;;5069445;28;20055;-90
2022/10/05 04:11:39;;;;;;;14.43;7.43;;;15.20;99.90;;;;;;5069541;28;20032;-90
2022/10/05 04:14:37;;;;;;;13.57;7.22;;;15.10;99.90;;;;;;5053092;28;20045;-89
2022/10/05 04:17:09;;;;;;;15.32;10.40;;;15.10;99.90;;;;;;5069450;28;20036;-89
2022/10/05 04:19:44;;;;;;;15.07;6.95;;;15.10;99.90;;;;;;5069745;28;20048;-89
2022/10/05 04:22:20;;;;;;;15.15;10.80;;;15.10;99.90;;;;;;5069410;28;20041;-90
2022/10/05 04:24:53;;;;;;;12.65;7.30;;;15.10;99.90;;;;;;5052774;28;20410;-90
2022/10/05 04:27:25;;;;;;;13.85;10.95;;;15.10;99.90;;;;;;5069494;28;20048;-89
2022/10/05 04:30:01;;;;;;;13.55;7.55;;;15.10;99.90;;;;;;5055491;28;20501;-90
2022/10/05 04:32:29;;;;;;;13.70;7.80;;;15.10;99.90;;;;;;5072979;28;20107;-90
2022/10/05 04:35:17;;;;;;;13.88;11.15;;;15.00;99.90;;;;;;5073189;28;20056;-90
2022/10/05 04:37:57;;;;;;;14.32;11.45;;;15.10;99.90;;;;;;5073019;28;20043;-89
2022/10/05 04:40:28;;;;;;;14.32;7.97;;;15.10;99.90;;;;;;5073297;28;20044;-89
2022/10/05 04:43:02;;;;;;;14.85;11.48;;;15.00;99.90;;;;;;5072737;28;20044;-90
2022/10/05 04:45:59;;;;;;;14.82;11.13;;;15.00;99.90;;;;;;5072968;28;20087;-90
2022/10/05 04:48:52;;;;;;;16.67;11.68;;;15.10;99.90;;;;;;5072820;28;20044;-90
2022/10/05 04:51:35;;;;;;;14.75;12.32;;;15.00;99.90;;;;;;5072533;28;20037;-89
2022/10/05 04:54:26;;;;;;;14.35;8.27;;;15.00;99.90;;;;;;5072284;28;20051;-89
2022/10/05 04:56:57;;;;;;;18.35;13.10;;;14.90;99.90;;;;;;5073034;28;20494;-89
2022/10/05 04:59:57;;;;;;;14.93;8.93;;;14.90;99.90;;;;;;5072942;28;20056;-90
2022/10/05 05:02:39;;;;;;;15.05;12.27;;;14.90;99.90;;;;;;5072286;28;20497;-89
2022/10/05 05:05:22;;;;;;;13.70;7.63;;;14.80;99.90;;;;;;5072906;28;20452;-90
2022/10/05 05:08:38;;;;;;;14.77;7.75;;;14.80;99.90;;;;;;5072138;28;20048;-89
2022/10/05 05:11:30;;;;;;;16.42;13.27;;;14.70;99.90;;;;;;5072200;28;20037;-90
2022/10/05 05:13:56;;;;;;;17.98;12.77;;;14.70;99.90;;;;;;5072262;28;20040;-90
2022/10/05 05:16:27;;;;;;;18.52;14.05;;;14.70;99.90;;;;;;5072398;28;20426;-89
2022/10/05 05:19:03;;;;;;;17.35;13.45;;;14.70;99.90;;;;;;5072236;28;20040;-89
2022/10/05 05:21:49;;;;;;;14.48;8.30;;;14.80;99.90;;;;;;5071995;28;20047;-89
2022/10/05 05:24:51;;;;;;;14.98;9.25;;;14.70;99.90;;;;;;5055312;28;20036;-89
2022/10/05 05:27:25;;;;;;;17.35;13.73;;;14.60;99.90;;;;;;5072292;28;20044;-89
2022/10/05 05:30:12;;;;;;;17.38;13.98;;;14.60;99.90;;;;;;5071606;28;20497;-89
2022/10/05 05:33:04;;;;;;;15.13;8.60;;;14.70;99.90;;;;;;5055226;28;20530;-90
2022/10/05 05:35:57;;;;;;;19.30;14.32;;;14.70;99.90;;;;;;5055318;28;20032;-90
2022/10/05 05:38:31;;;;;;;15.77;13.80;;;14.70;99.90;;;;;;5055368;28;20076;-90
2022/10/05 05:41:09;;;;;;;15.60;8.85;;;14.70;99.90;;;;;;5054703;28;20504;-90
2022/10/05 05:43:54;;;;;;;14.75;9.05;;;14.70;99.90;;;;;;5071916;28;20083;-90
2022/10/05 05:46:25;;;;;;;18.00;13.55;;;14.60;99.90;;;;;;5054677;28;20048;-90
2022/10/05 05:48:52;;;;;;;17.40;14.10;;;14.70;99.90;;;;;;5071709;28;20080;-90
2022/10/05 05:51:42;;;;;;;17.35;9.60;;;14.70;99.90;;;;;;5071475;28;20048;-90
2022/10/05 05:54:25;;;;;;;15.77;13.85;;;14.70;99.90;;;;;;5071474;28;20033;-90
2022/10/05 05:57:14;;;;;;;17.48;13.38;;;14.70;99.90;;;;;;5071801;28;20394;-90
2022/10/05 06:00:07;;;;;;;18.13;9.82;;;14.70;99.90;;;;;;5070642;28;20056;-90
2022/10/05 06:02:53;;;;;;;14.98;8.85;;;14.70;99.90;;;;;;5054265;28;20040;-91
2022/10/05 06:05:27;;;;;;;15.43;13.10;;;14.70;99.90;;;;;;5071687;28;20044;-90
2022/10/05 06:07:54;;;;;;;15.55;9.27;;;14.70;99.90;;;;;;5070855;28;20414;-90
2022/10/05 06:10:40;;;;;;;15.77;13.45;;;14.70;99.90;;;;;;5071235;28;20044;-89
2022/10/05 06:13:15;;;;;;;15.52;13.35;;;14.80;99.90;;;;;;5054481;28;20032;-91
2022/10/05 06:15:48;;;;;;;16.02;12.93;;;14.80;99.90;;;;;;5070775;28;20494;-89
2022/10/05 06:18:18;;;;;;;15.52;8.45;;;14.80;99.90;;;;;;5071097;28;20036;-90
2022/10/05 06:20:58;;;;;;;16.65;13.90;;;14.80;99.90;;;;;;5051722;28;20032;-91
2022/10/05 06:23:30;;;;;;;17.95;13.82;;;14.80;99.90;;;;;;5070700;28;20072;-90
2022/10/05 06:26:02;;;;;;;14.70;8.55;;;14.90;99.90;;;;;;5070289;28;20044;-91
2022/10/05 06:28:28;;;;;;;;;;;14.80;99.90;;;;;;5054417;28;20040;-90
2022/10/05 06:31:06;;;;;;;13.35;8.32;;;14.80;99.90;;;;;;5069675;28;19928;-91
2022/10/05 06:33:50;;;;;;;14.88;13.27;;;14.80;99.90;;;;;;5070792;28;20044;-91
2022/10/05 06:36:39;;;;;;;15.73;13.43;;;14.80;99.90;;;;;;5070168;28;20036;-91
2022/10/05 06:39:20;;;;;;;14.25;9.00;;;14.90;99.90;;;;;;5070504;28;20043;-90
2022/10/05 06:42:18;;;;;;;13.05;8.55;;;14.80;99.90;;;;;;5069997;28;20041;-90
2022/10/05 06:45:02;;;;;;;14.73;12.60;;;14.80;99.90;;;;;;5070100;28;20059;-90
2022/10/05 06:47:35;;;;;;;15.93;9.00;;;14.80;99.90;;;;;;5070224;28;20040;-90
2022/10/05 06:50:13;;;;;;;14.30;12.10;;;14.90;99.90;;;;;;5070108;28;20136;-90
2022/10/05 06:53:01;;;;;;;13.35;8.18;;;14.90;99.90;;;;;;5068795;28;20040;-91
2022/10/05 06:56:05;;;;;;;17.08;12.10;;;14.90;99.90;;;;;;5053347;28;20040;-90
2022/10/05 06:58:39;;;;;;;12.73;8.32;;;14.90;99.90;;;;;;4973254;28;20034;-90
2022/10/05 07:01:21;;;;;;;15.13;11.90;;;14.90;99.90;;;;;;4957205;28;20050;-90
2022/10/05 07:04:20;;;;;;;13.60;8.35;;;15.00;99.90;;;;;;4957551;28;20054;-90
2022/10/05 07:07:01;;;;;;;15.68;12.75;;;14.90;99.90;;;;;;4972789;28;20058;-90
2022/10/05 07:09:42;;;;;;;13.65;11.35;;;15.00;99.90;;;;;;4972469;28;20116;-90
2022/10/05 07:12:43;;;;;;;12.80;6.85;;;15.00;99.90;;;;;;4972216;28;20042;-90
2022/10/05 07:15:21;;;;;;;14.85;11.90;;;15.00;99.90;;;;;;4989480;28;20046;-90
2022/10/05 07:18:07;;;;;;;16.63;12.52;;;15.00;99.90;;;;;;4973317;28;20046;-90
2022/10/05 07:20:47;;;;;;;13.35;8.35;;;15.10;99.90;;;;;;4972702;28;20057;-91
2022/10/05 07:23:41;;;;;;;14.88;11.00;;;15.00;99.90;;;;;;4972060;28;20510;-90
2022/10/05 07:26:21;;;;;;;12.75;7.65;;;15.10;99.90;;;;;;4971771;28;20126;-90
2022/10/05 07:28:52;;;;;;;13.05;11.35;;;15.10;99.90;;;;;;4996698;28;20448;-91
2022/10/05 07:31:48;;;;;;;14.25;11.63;;;15.10;99.90;;;;;;5067831;28;20044;-91
2022/10/05 07:34:41;;;;;;;14.02;8.75;;;15.10;99.90;;;;;;5066449;28;20044;-90
2022/10/05 07:39:56;;;;;;;15.45;11.43;;;15.00;99.90;;;;;;5066984;28;20041;-90
2022/10/05 07:42:39;;;;;;;15.02;8.73;;;15.10;99.90;;;;;;5067856;28;20032;-91
2022/10/05 07:45:30;;;;;;;15.30;8.70;;;15.10;99.90;;;;;;5067865;28;20040;-91
2022/10/05 07:48:11;;;;;;;12.70;11.07;;;15.10;99.90;;;;;;5050426;28;20055;-90
2022/10/05 07:50:55;;;;;;;12.23;7.82;;;15.20;99.90;;;;;;5066755;28;20460;-90
2022/10/05 07:54:00;;;;;;;13.05;11.20;;;15.10;99.90;;;;;;5067598;28;20064;-91
2022/10/05 07:56:37;;;;;;;13.93;10.95;;;15.20;99.90;;;;;;5015480;28;20051;-91
2022/10/05 07:59:10;;;;;;;14.15;8.18;;;15.30;99.90;;;;;;5049131;28;20048;-90
2022/10/05 08:01:40;;;;;;;13.02;6.68;;;15.30;99.90;;;;;;5032650;28;20044;-90
2022/10/05 08:04:25;;;;;;;14.80;11.65;;;15.30;99.90;;;;;;5052555;28;20554;-91
2022/10/05 08:06:58;;;;;;;12.80;7.40;;;15.30;99.90;;;;;;5052419;28;20045;-90
2022/10/05 08:09:44;;;;;;;13.57;9.90;;;15.30;99.90;;;;;;5053476;28;20045;-90
2022/10/05 08:12:23;;;;;;;13.77;9.60;;;15.40;99.90;;;;;;5053230;28;20037;-90
2022/10/05 08:15:10;;;;;;;13.32;7.63;;;15.40;99.90;;;;;;5053295;28;20116;-90
2022/10/05 08:17:42;;;;;;;13.27;10.25;;;15.40;99.90;;;;;;5053568;28;20453;-90
2022/10/05 08:20:37;;;;;;;11.85;6.90;;;15.40;99.90;;;;;;5036389;28;20123;-90
2022/10/05 08:23:37;;;;;;;12.20;9.20;;;15.50;99.90;;;;;;5052978;28;20573;-90
2022/10/05 08:26:37;;;;;;;12.80;7.43;;;15.50;99.90;;;;;;5036763;28;20044;-91
2022/10/05 08:29:46;;;;;;;12.20;9.38;;;15.50;99.90;;;;;;5036263;28;20491;-90
2022/10/05 08:32:19;;;;;;;12.27;9.15;;;15.50;99.90;;;;;;5036635;28;20033;-90
2022/10/05 08:34:53;;;;;;;12.48;6.80;;;15.60;99.90;;;;;;5054001;28;20041;-90
2022/10/05 08:37:36;;;;;;;11.40;8.80;;;15.60;99.90;;;;;;5053123;28;20808;-90
2022/10/05 08:40:20;;;;;;;12.63;6.57;;;15.70;99.90;;;;;;5054379;28;20117;-90
2022/10/05 08:43:21;;;;;;;12.63;8.60;;;15.70;99.90;;;;;;5052470;28;20052;-91
2022/10/05 08:46:24;;;;;;;11.65;8.85;;;15.70;99.90;;;;;;5036525;28;20041;-90
2022/10/05 08:49:01;;;;;;;9.88;6.22;;;15.80;99.90;;;;;;5053216;28;20052;-90
2022/10/05 08:51:43;;;;;;;10.98;8.40;;;15.70;99.90;;;;;;5035705;28;20041;-90
2022/10/05 08:54:24;;;;;;;11.88;5.95;;;15.80;99.90;;;;;;5054456;28;20449;-90
2022/10/05 08:57:07;;;;;;;10.05;7.47;;;15.90;99.90;;;;;;5036004;28;20041;-90
2022/10/05 08:59:52;;;;;;;10.13;6.15;;;15.90;99.90;;;;;;5052954;28;20063;-90
2022/10/05 09:02:45;;;;;;;10.98;7.57;;;15.90;99.90;;;;;;5052194;28;20115;-90
2022/10/05 09:05:34;;;;;;;9.68;6.40;;;16.00;99.90;;;;;;5052454;28;20080;-90
2022/10/05 09:08:29;;;;;;;9.48;6.55;;;16.00;99.90;;;;;;5052446;28;20769;-91
2022/10/05 09:11:12;;;;;;;12.13;5.80;;;16.10;99.90;;;;;;5001838;28;20073;-91
2022/10/05 09:13:43;;;;;;;13.80;7.97;;;16.10;99.90;;;;;;5051828;28;20041;-90
2022/10/05 09:16:21;;;;;;;12.65;6.80;;;16.10;99.90;;;;;;5034864;28;20122;-91
2022/10/05 09:19:25;;;;;;;9.77;6.50;;;16.10;99.90;;;;;;5052618;28;20122;-91
2022/10/05 09:22:24;;;;;;;10.55;6.82;;;16.20;99.90;;;;;;5050976;28;20049;-91
2022/10/05 09:24:56;;;;;;;10.05;5.32;;;16.20;99.90;;;;;;5035915;28;20037;-91
2022/10/05 09:27:41;;;;;;;9.18;6.28;;;16.10;99.90;;;;;;5035337;28;20033;-91
2022/10/05 09:30:21;;;;;;;9.63;5.78;;;16.10;99.90;;;;;;5052385;28;20072;-91
2022/10/05 09:33:24;;;;;;;8.65;4.65;;;16.20;99.90;;;;;;5050688;28;20043;-91
2022/10/05 09:36:26;;;;;;;8.98;5.68;;;16.10;99.90;;;;;;5055230;28;20114;-91
2022/10/05 09:39:12;;;;;;;10.10;6.13;;;16.20;99.90;;;;;;5072139;28;20115;-91
2022/10/05 09:41:53;;;;;;;10.25;6.25;;;16.20;99.90;;;;;;5054915;28;20040;-90
2022/10/05 09:45:04;;;;;;;11.40;6.68;;;16.20;99.90;;;;;;5072227;28;20040;-91
2022/10/05 09:48:03;;;;;;;10.63;6.60;;;16.20;99.90;;;;;;5072262;28;20044;-91
2022/10/05 09:51:16;;;;;;;9.40;6.45;;;16.20;99.90;;;;;;5071287;28;20084;-91
2022/10/05 09:54:10;;;;;;;9.68;6.38;;;16.20;99.90;;;;;;4991447;28;20404;-90
2022/10/05 09:57:13;;;;;;;11.45;6.55;;;16.20;99.90;;;;;;4974909;28;20038;-91
2022/10/05 10:00:12;;;;;;;8.73;4.55;;;16.20;99.90;;;;;;5060977;28;20098;-91
2022/10/05 10:02:57;;;;;;;9.27;6.55;;;16.20;99.90;;;;;;5071049;28;20044;-91
2022/10/05 10:05:38;;;;;;;9.00;4.93;;;16.20;99.90;;;;;;5071433;28;20036;-90
2022/10/05 10:08:29;;;;;;;9.88;6.28;;;16.20;99.90;;;;;;5070797;28;20059;-91
2022/10/05 10:10:59;;;;;;;9.80;6.35;;;16.30;99.90;;;;;;5050663;28;20056;-91
2022/10/05 10:13:50;;;;;;;9.25;6.15;;;16.30;99.90;;;;;;5034651;28;20048;-91
2022/10/05 10:16:40;;;;;;;9.13;6.00;;;16.30;99.90;;;;;;5051309;28;20044;-91
2022/10/05 10:19:48;;;;;;;9.90;5.50;;;16.40;99.90;;;;;;5034087;28;20124;-91
2022/10/05 10:22:38;;;;;;;9.23;6.53;;;16.30;99.90;;;;;;5050841;28;20517;-91
2022/10/05 10:25:33;;;;;;;11.68;6.68;;;16.40;99.90;;;;;;5050880;28;20071;-91
2022/10/05 10:28:51;;;;;;;10.43;5.65;;;16.40;99.90;;;;;;5050176;28;20103;-91
2022/10/05 10:31:25;;;;;;;9.82;5.82;;;16.50;99.90;;;;;;5050306;28;20033;-90
2022/10/05 10:34:28;;;;;;;9.32;6.00;;;16.50;99.90;;;;;;5033736;28;20076;-91
2022/10/05 10:37:25;;;;;;;9.10;4.60;;;16.60;99.90;;;;;;5050219;28;20037;-90
2022/10/05 10:40:22;;;;;;;9.43;5.65;;;16.50;99.90;;;;;;5050602;28;20048;-91
2022/10/05 10:43:25;;;;;;;8.23;4.13;;;16.60;99.90;;;;;;5033245;28;20565;-90
2022/10/05 10:46:09;;;;;;;7.90;5.10;;;16.60;99.90;;;;;;5050579;28;20049;-91
2022/10/05 10:48:59;;;;;;;8.35;4.10;;;16.70;99.90;;;;;;5049557;28;20060;-91
2022/10/05 10:51:43;;;;;;;8.82;4.47;;;16.70;99.90;;;;;;5033191;28;20037;-91
2022/10/05 10:54:26;;;;;;;8.35;3.70;;;16.80;99.90;;;;;;5050169;28;20552;-91
2022/10/05 10:56:55;;;;;;;8.70;3.50;;;16.80;99.90;;;;;;5049633;28;20095;-91
2022/10/05 10:59:56;;;;;;;8.70;3.58;;;16.90;99.90;;;;;;5033409;28;20036;-91
2022/10/05 11:02:48;;;;;;;7.25;3.10;;;17.00;99.90;;;;;;5049816;28;20044;-90
2022/10/05 11:05:39;;;;;;;6.57;2.63;;;17.00;99.90;;;;;;5049477;28;20047;-91
2022/10/05 11:08:26;;;;;;;8.70;3.30;;;17.10;99.90;;;;;;5056352;28;20281;-91
2022/10/05 11:11:18;;;;;;;8.30;3.33;;;17.20;99.90;;;;;;5069670;28;20051;-91
2022/10/05 11:14:01;;;;;;;6.50;3.10;;;17.20;99.90;;;;;;5070380;28;20041;-91
2022/10/05 11:16:54;;;;;;;7.95;3.65;;;17.20;99.90;;;;;;5053256;28;20632;-90
2022/10/05 11:19:41;;;;;;;8.90;4.03;;;17.20;99.90;;;;;;5069448;28;20555;-91
2022/10/05 11:22:28;;;;;;;7.72;3.80;;;17.30;99.90;;;;;;5069560;28;20068;-91
2022/10/05 11:25:30;;;;;;;7.82;3.42;;;17.40;99.90;;;;;;5069718;28;20078;-91
2022/10/05 11:28:17;;;;;;;8.02;3.78;;;17.40;99.90;;;;;;5069195;28;20520;-90
2022/10/05 11:30:58;;;;;;;7.63;3.90;;;17.50;99.90;;;;;;5052863;28;20048;-91
2022/10/05 11:33:26;;;;;;;7.40;3.90;;;17.60;99.90;;;;;;5070066;28;20052;-90
2022/10/05 11:36:11;;;;;;;8.50;3.85;;;17.60;99.90;;;;;;5070228;28;20055;-90
2022/10/05 11:38:55;;;;;;;9.07;3.42;;;17.60;99.90;;;;;;5071146;28;20044;-91
2022/10/05 11:41:49;;;;;;;8.25;4.40;;;17.70;99.90;;;;;;5073454;28;20048;-91
2022/10/05 11:44:38;;;;;;;7.75;4.10;;;17.70;99.90;;;;;;5074124;28;20036;-91
2022/10/05 11:47:16;;;;;;;9.07;4.28;;;17.70;99.90;;;;;;5074177;28;20037;-91
2022/10/05 11:50:20;;;;;;;12.43;5.00;;;17.80;99.90;;;;;;5057688;28;20036;-91
2022/10/05 11:53:05;;;;;;;9.52;4.10;;;17.80;99.90;;;;;;5056311;28;20123;-91
2022/10/05 11:55:56;;;;;;;6.82;3.85;;;17.70;99.90;;;;;;5072783;28;20442;-91
2022/10/05 11:58:50;;;;;;;8.55;4.00;;;17.80;99.90;;;;;;5053208;28;20086;-91
2022/10/05 12:01:18;;;;;;;8.05;3.83;;;17.80;99.90;;;;;;5069552;28;20054;-91
2022/10/05 12:03:50;;;;;;;10.48;4.18;;;17.80;99.90;;;;;;5052017;28;20040;-91
2022/10/05 12:06:36;;;;;;;7.75;3.55;;;17.70;99.90;;;;;;5072886;28;20135;-91
2022/10/05 12:09:29;;;;;;;7.85;3.72;;;17.70;99.90;;;;;;5072549;28;20517;-91
2022/10/05 12:12:09;;;;;;;8.00;3.72;;;17.70;99.90;;;;;;5071237;28;20063;-91
2022/10/05 12:14:57;;;;;;;8.98;3.75;;;17.70;99.90;;;;;;5056275;28;20116;-91
2022/10/05 12:17:35;;;;;;;7.40;3.65;;;17.70;99.90;;;;;;5055639;28;20068;-91
2022/10/05 12:20:16;;;;;;;7.35;3.65;;;17.70;99.90;;;;;;5072474;28;20040;-91
2022/10/05 12:22:49;;;;;;;9.27;3.80;;;17.70;99.90;;;;;;5072078;28;20036;-91
2022/10/05 12:25:41;;;;;;;9.05;3.85;;;17.70;99.90;;;;;;5055912;28;20044;-91
2022/10/05 12:28:15;;;;;;;7.68;3.15;;;17.70;99.90;;;;;;5053676;28;20032;-91
2022/10/05 12:30:59;;;;;;;7.60;3.70;;;17.70;99.90;;;;;;5055026;28;20089;-91
2022/10/05 12:33:46;;;;;;;9.02;3.50;;;17.70;99.90;;;;;;5053393;28;20498;-91
2022/10/05 12:36:43;;;;;;;9.48;3.72;;;17.70;99.90;;;;;;5071400;28;20486;-91
2022/10/05 12:39:36;;;;;;;10.90;3.78;;;17.70;99.90;;;;;;5052172;28;20052;-91
2022/10/05 12:42:28;;;;;;;9.10;3.42;;;17.70;99.90;;;;;;5052320;28;20037;-91
2022/10/05 12:45:15;;;;;;;8.98;3.97;;;17.70;99.90;;;;;;5052172;28;20037;-91
2022/10/05 12:48:08;;;;;;;7.82;3.85;;;17.70;99.90;;;;;;5052501;28;20095;-91
2022/10/05 12:50:41;;;;;;;8.75;3.72;;;17.70;99.90;;;;;;5051462;28;20044;-91
2022/10/05 12:53:31;;;;;;;8.23;3.92;;;17.70;99.90;;;;;;5052418;28;20043;-90
2022/10/05 12:56:08;;;;;;;8.60;3.13;;;17.80;99.90;;;;;;5052289;28;20041;-91
2022/10/05 12:58:58;;;;;;;9.55;3.70;;;17.80;99.90;;;;;;5035599;28;20040;-91
2022/10/05 13:01:52;;;;;;;8.25;3.40;;;17.80;99.90;;;;;;5052017;28;20077;-91
2022/10/05 13:04:23;;;;;;;12.40;3.50;;;17.90;99.90;;;;;;5052308;28;20044;-91
2022/10/05 13:07:26;;;;;;;7.82;3.40;;;17.90;99.90;;;;;;5052153;28;20040;-91
2022/10/05 13:10:17;;;;;;;6.60;3.20;;;18.00;99.90;;;;;;5051607;28;20041;-91
2022/10/05 13:12:52;;;;;;;7.72;3.20;;;18.10;99.90;;;;;;5051636;28;20076;-91
2022/10/05 13:15:29;;;;;;;9.93;3.47;;;18.10;99.90;;;;;;5052305;28;20044;-91
2022/10/05 13:18:16;;;;;;;7.32;3.13;;;18.20;99.90;;;;;;5052018;28;20048;-91
2022/10/05 13:21:04;;;;;;;6.63;3.03;;;18.20;99.90;;;;;;5051783;28;20129;-91
2022/10/05 13:23:58;;;;;;;7.40;2.90;;;18.20;99.90;;;;;;5051862;28;20099;-90
2022/10/05 13:26:33;;;;;;;9.20;3.42;;;18.30;99.90;;;;;;5051751;28;20048;-91
2022/10/05 13:29:14;;;;;;;8.10;2.90;;;18.30;99.90;;;;;;5068330;28;20563;-91
2022/10/05 13:31:46;;;;;;;7.72;2.90;;;18.30;99.90;;;;;;5051106;28;20045;-91
2022/10/05 13:34:18;;;;;;;7.07;2.53;;;18.30;99.90;;;;;;5051623;28;20033;-91
2022/10/05 13:37:01;;;;;;;8.10;3.25;;;18.20;99.90;;;;;;5051324;28;20044;-91
2022/10/05 13:39:48;;;;;;;8.60;3.25;;;18.30;99.90;;;;;;5051258;28;20045;-90
2022/10/05 13:42:20;;;;;;;7.68;3.00;;;18.40;99.90;;;;;;5051193;28;20033;-91
2022/10/05 13:45:15;;;;;;;8.30;3.22;;;18.60;99.90;;;;;;5052983;28;20383;-91
2022/10/05 13:48:18;;;;;;;8.48;3.20;;;18.70;99.90;;;;;;5052809;28;20029;-91
2022/10/05 13:50:47;;;;;;;6.50;2.60;;;18.70;99.90;;;;;;5051822;28;20127;-91
2022/10/05 13:53:28;;;;;;;9.55;3.30;;;18.60;99.90;;;;;;5070476;28;20075;-91
2022/10/05 13:56:12;;;;;;;8.60;3.05;;;18.60;99.90;;;;;;5069230;28;20028;-91
2022/10/05 13:58:43;;;;;;;9.35;2.85;;;18.60;99.90;;;;;;5054079;28;20029;-91
2022/10/05 14:01:17;;;;;;;10.07;3.55;;;18.60;99.90;;;;;;5053187;28;20043;-91
2022/10/05 14:04:15;;;;;;;12.30;3.42;;;18.60;99.90;;;;;;5051288;28;20048;-91
2022/10/05 14:06:41;;;;;;;11.40;3.35;;;18.70;99.90;;;;;;5051028;28;20064;-91